Terminal Aerodrome Forecast
Issued by NWS

Home | Current Version | Previous Version | Graphics & Text | Print | Product List | Glossary On
Versions: 1 2 3 4 5 6 7 8 9 10 11 12 13 14
344
FTUS43 KTOP 230954 AAA
TAFFOE
TAF AMD
KFOE 230954Z 2310/2406 01014G24KT P6SM SCT200
      TEMPO 2310/2313 BKN018
     FM231300 36014KT P6SM BKN040
     FM231600 36011KT P6SM SCT100=

USA.gov is the U.S. government's official web portal to all federal, state and local government web resources and services.